Aérodrome :
LOGIN :

S'inscrire | Disclaimer

   EN    FR    IT 

 










Légende :    VFR   VFR Marginal   IFR   IFR Intensif   IFR Très Intensif
Visi : 
Plafond : 
>= 8 km
>= 3000ft
5 à 8 km
1000 à 3000 ft
1500m à 5 km
500 à 1000 ft
800 à 1500m
200 à 500 ft
< 800m
< 200 ft
Symboles :   Orages  Brouillard  Fortes neiges  Fortes précipitations  Vent > 20 kt
SIGMETs :   Divers  Orages  Givrage  Turbulence  Onde Orograph.  Cendres Volcan.







- Altitude de l'aérodrome : 390 ft
- Code IATA : NQY
- Voir les cartes d'approche


EGHQ - Newquay

DERNIER METAR :
  • 281150Z 32006KT 290V350 9999 SCT020 BKN042 10/04 Q1019

METARs EXPIRÉS :
  • 281120Z 32006KT 9999 FEW020 BKN042 10/05 Q1019
  • 281050Z 31008KT 280V010 9999 FEW020 BKN040 09/05 Q1019
  • 281020Z 35006KT 9999 FEW015 BKN040 09/06 Q1019
  • 280950Z 34004KT 320V020 9999 FEW015 BKN035 09/06 Q1019
  • 280920Z VRB03KT 9999 FEW015 BKN035 08/06 Q1019
  • 280850Z 01003KT 9999 -RA SCT016 BKN033 08/06 Q1019

TAF TAF EGHQ
Valide du 28 à 12h jusqu'au 28 à 21h UTC


281101Z 2812/2821 35006KT 9999 SCT025
Pas de NOTAMs connus pour ce terrain.



MET'MAP, la Météo Aéronautique d'un coup d'oeil ! - Copyright ORBIFLY Décembre 2007 - Disclaimer

ORBIFLY MET'MAP TEAM :

Programmation & Développement : Alexandra Zaïnal
Conception & Développement : Baudouin d'Aumeries
Co-Programmation & Développement : Marc-Olivier Méhu
Soutien technique & logistique : Manuel Goepfert

Contact : metmap@orbifly.com




SOURCES & CREDITS :

   NOAA